Time;durP1;ratioP1;P1;durP2;ratioP2;P2;SDS_P1;SDS_P2;PMS_P1;PMS_P2;Temp;Humidity;BMP_temperature;BMP_pressure;BME280_temperature;BME280_humidity;BME280_pressure;Samples;Min_cycle;Max_cycle;Signal;HPM_P1;HPM_P2
2023/09/12 00:00:16;;;;;;;15.75;7.30;;;20.70;99.90;;;;;;4975027;28;20022;-54
2023/09/12 00:02:42;;;;;;;19.95;8.05;;;20.70;99.90;;;;;;4974736;28;20034;-57
2023/09/12 00:05:07;;;;;;;23.90;9.50;;;20.60;99.90;;;;;;4975042;28;20086;-55
2023/09/12 00:07:33;;;;;;;24.67;9.85;;;20.70;99.90;;;;;;4975057;28;20031;-55
2023/09/12 00:09:58;;;;;;;21.02;8.95;;;20.60;99.90;;;;;;4974330;28;20051;-49
2023/09/12 00:12:27;;;;;;;17.40;10.35;;;20.70;99.90;;;;;;4975157;28;20125;-54
2023/09/12 00:14:53;;;;;;;22.15;9.40;;;20.80;99.90;;;;;;4974972;28;20054;-52
2023/09/12 00:17:19;;;;;;;17.65;8.20;;;20.80;99.90;;;;;;4974880;28;20517;-56
2023/09/12 00:19:44;;;;;;;15.98;8.68;;;20.90;99.90;;;;;;4974877;28;20077;-56
2023/09/12 00:22:10;;;;;;;21.33;8.55;;;20.90;99.90;;;;;;4973592;28;20050;-53
2023/09/12 00:24:35;;;;;;;16.88;7.72;;;20.90;99.90;;;;;;4974223;28;20494;-56
2023/09/12 00:27:01;;;;;;;18.23;9.68;;;20.80;99.90;;;;;;4974701;28;20035;-55
2023/09/12 00:29:26;;;;;;;19.05;8.45;;;20.80;99.90;;;;;;4974778;28;20051;-52
2023/09/12 00:31:51;;;;;;;12.30;6.85;;;20.80;99.90;;;;;;4974758;28;20113;-54
2023/09/12 00:34:17;;;;;;;18.13;8.02;;;20.80;99.90;;;;;;4973129;28;20398;-54
2023/09/12 00:36:43;;;;;;;15.48;7.55;;;20.80;99.90;;;;;;4974367;28;20043;-56
2023/09/12 00:39:09;;;;;;;17.90;9.98;;;20.70;99.90;;;;;;4975087;28;20038;-56
2023/09/12 00:41:35;;;;;;;20.20;9.07;;;20.70;99.90;;;;;;4974518;28;20031;-56
2023/09/12 00:44:00;;;;;;;20.08;9.10;;;20.60;99.90;;;;;;4974176;28;20046;-52
2023/09/12 00:46:27;;;;;;;15.68;8.18;;;20.50;99.90;;;;;;4974445;28;20085;-53
2023/09/12 00:48:53;;;;;;;20.40;8.60;;;20.50;99.90;;;;;;4974407;28;20569;-53
2023/09/12 00:51:21;;;;;;;21.15;8.75;;;20.50;99.90;;;;;;4974412;28;20027;-56
2023/09/12 00:53:47;;;;;;;17.27;8.90;;;20.50;99.90;;;;;;4974087;28;20016;-54
2023/09/12 00:56:13;;;;;;;13.90;8.07;;;20.40;99.90;;;;;;4974303;28;20074;-50
2023/09/12 00:58:39;;;;;;;17.98;8.02;;;20.40;99.90;;;;;;4974241;28;20510;-56
2023/09/12 01:01:05;;;;;;;20.85;8.07;;;20.40;99.90;;;;;;4975466;28;20419;-55
2023/09/12 01:03:31;;;;;;;20.63;7.93;;;20.40;99.90;;;;;;4975823;28;20037;-54
2023/09/12 01:05:59;;;;;;;17.77;8.38;;;20.30;99.90;;;;;;4978578;28;20038;-56
2023/09/12 01:08:24;;;;;;;18.15;8.10;;;20.20;99.90;;;;;;4972040;28;20019;-56
2023/09/12 01:10:53;;;;;;;13.45;8.52;;;20.10;99.90;;;;;;4974205;28;20097;-53
2023/09/12 01:13:19;;;;;;;14.63;8.63;;;20.00;99.90;;;;;;4973150;28;20041;-55
2023/09/12 01:15:45;;;;;;;20.55;7.57;;;20.00;99.90;;;;;;4973553;28;20023;-53
2023/09/12 01:18:11;;;;;;;16.27;8.32;;;19.90;99.90;;;;;;4973761;28;20038;-54
2023/09/12 01:20:41;;;;;;;15.18;8.32;;;19.80;99.90;;;;;;4973766;28;20019;-56
2023/09/12 01:23:31;;;;;;;17.70;8.32;;;19.90;99.90;;;;;;4973396;28;20054;-53
2023/09/12 01:26:04;;;;;;;23.17;10.32;;;19.90;99.90;;;;;;4973418;28;20026;-56
2023/09/12 01:28:34;;;;;;;22.88;10.23;;;19.90;99.90;;;;;;4973711;28;20043;-52
2023/09/12 01:31:02;;;;;;;31.60;10.50;;;19.90;99.90;;;;;;4973478;28;20102;-53
2023/09/12 01:33:28;;;;;;;19.27;10.32;;;19.90;99.90;;;;;;4973405;28;20077;-51
2023/09/12 01:35:54;;;;;;;28.55;11.55;;;19.90;99.90;;;;;;4971957;28;20491;-54
2023/09/12 01:38:21;;;;;;;20.67;10.15;;;19.80;99.90;;;;;;4973491;28;20019;-51
2023/09/12 01:40:50;;;;;;;21.23;10.02;;;19.80;99.90;;;;;;4973438;28;20025;-53
2023/09/12 01:43:18;;;;;;;17.83;10.82;;;19.70;99.90;;;;;;4973271;28;20034;-55
2023/09/12 01:45:45;;;;;;;19.63;9.70;;;19.60;99.90;;;;;;4971671;28;20027;-55
2023/09/12 01:48:12;;;;;;;24.85;9.75;;;19.70;99.90;;;;;;4973215;28;20023;-55
2023/09/12 01:50:38;;;;;;;19.13;9.07;;;19.60;99.90;;;;;;4973232;28;20483;-56
2023/09/12 01:53:04;;;;;;;17.55;8.90;;;19.60;99.90;;;;;;4973152;28;20105;-53
2023/09/12 01:55:30;;;;;;;18.58;8.88;;;19.50;99.90;;;;;;4972825;28;20116;-56
2023/09/12 01:57:57;;;;;;;17.90;9.60;;;19.40;99.90;;;;;;4971714;28;20022;-55
2023/09/12 02:00:23;;;;;;;27.33;9.93;;;19.20;99.90;;;;;;4973147;28;20469;-47
2023/09/12 02:02:49;;;;;;;23.92;10.20;;;19.10;99.90;;;;;;4972981;28;20098;-55
2023/09/12 02:05:21;;;;;;;27.70;10.40;;;19.10;99.90;;;;;;4972598;28;20506;-53
2023/09/12 02:07:47;;;;;;;31.23;10.38;;;19.00;99.90;;;;;;4972769;28;20077;-53
2023/09/12 02:10:13;;;;;;;23.50;9.88;;;19.00;99.90;;;;;;4972921;28;20110;-54
2023/09/12 02:12:39;;;;;;;13.40;8.32;;;19.00;99.90;;;;;;4972968;28;20098;-56
2023/09/12 02:15:05;;;;;;;23.13;9.68;;;19.00;99.90;;;;;;4973231;28;20066;-55
2023/09/12 02:17:31;;;;;;;20.95;9.02;;;19.10;99.90;;;;;;4973331;28;20494;-57
2023/09/12 02:19:56;;;;;;;20.23;10.73;;;19.00;99.90;;;;;;4971630;28;20054;-55
2023/09/12 02:22:22;;;;;;;17.98;9.48;;;19.00;99.90;;;;;;4973253;28;20236;-53
2023/09/12 02:24:47;;;;;;;21.55;10.25;;;19.00;99.90;;;;;;4971382;28;20030;-55
2023/09/12 02:27:13;;;;;;;21.70;10.98;;;18.90;99.90;;;;;;4972656;28;20026;-57
2023/09/12 02:29:39;;;;;;;21.00;11.07;;;18.90;99.90;;;;;;4972797;28;20019;-55
2023/09/12 02:32:05;;;;;;;19.17;10.38;;;18.90;99.90;;;;;;4972680;28;20034;-56
2023/09/12 02:34:31;;;;;;;21.90;11.57;;;18.80;99.90;;;;;;4972568;28;20023;-53
2023/09/12 02:36:56;;;;;;;17.38;10.65;;;18.70;99.90;;;;;;4972478;28;20034;-52
2023/09/12 02:39:22;;;;;;;27.05;10.68;;;18.70;99.90;;;;;;4972653;28;20034;-56
2023/09/12 02:41:47;;;;;;;25.60;10.35;;;18.70;99.90;;;;;;4972729;28;20031;-55
2023/09/12 02:44:13;;;;;;;22.15;10.57;;;18.70;99.90;;;;;;4972362;28;20485;-54
2023/09/12 02:46:38;;;;;;;27.02;11.90;;;18.70;99.90;;;;;;4972463;28;20094;-56
2023/09/12 02:49:04;;;;;;;24.27;11.25;;;18.70;99.90;;;;;;4971259;28;20051;-54
2023/09/12 02:51:29;;;;;;;23.20;10.68;;;18.70;99.90;;;;;;4972622;28;20398;-53
2023/09/12 02:53:55;;;;;;;31.33;12.43;;;18.80;99.90;;;;;;4972236;28;20030;-49
2023/09/12 02:56:20;;;;;;;32.75;11.85;;;18.80;99.90;;;;;;4972407;28;20494;-54
2023/09/12 02:58:46;;;;;;;24.15;11.20;;;18.90;99.90;;;;;;4972477;28;20030;-54
2023/09/12 03:01:19;;;;;;;21.63;10.98;;;18.90;99.90;;;;;;4972555;28;20031;-56
2023/09/12 03:03:49;;;;;;;28.30;11.30;;;18.90;99.90;;;;;;4972403;28;20360;-56
2023/09/12 03:06:15;;;;;;;22.00;10.90;;;19.00;99.90;;;;;;4971983;28;20070;-53
2023/09/12 03:08:41;;;;;;;23.85;11.30;;;19.10;99.90;;;;;;4971155;28;20027;-54
2023/09/12 03:11:07;;;;;;;21.60;11.25;;;19.10;99.90;;;;;;4972337;28;20110;-56
2023/09/12 03:13:34;;;;;;;22.50;10.73;;;19.20;99.90;;;;;;4972236;28;20062;-53
2023/09/12 03:16:00;;;;;;;18.58;10.60;;;19.10;99.90;;;;;;4972188;28;20038;-52
2023/09/12 03:18:25;;;;;;;22.50;12.65;;;19.10;99.90;;;;;;4972292;28;20026;-51
2023/09/12 03:20:51;;;;;;;20.75;10.77;;;19.20;99.90;;;;;;4972554;28;20069;-54
2023/09/12 03:23:16;;;;;;;23.13;11.38;;;19.10;99.90;;;;;;4972029;28;20035;-55
2023/09/12 03:25:42;;;;;;;27.33;11.52;;;19.10;99.90;;;;;;4971949;28;20043;-55
2023/09/12 03:28:08;;;;;;;22.45;11.05;;;19.00;99.90;;;;;;4972099;28;20066;-54
2023/09/12 03:30:35;;;;;;;20.55;10.98;;;18.90;99.90;;;;;;4972202;28;20034;-55
2023/09/12 03:33:01;;;;;;;19.77;10.68;;;18.80;99.90;;;;;;4974877;28;20022;-55
2023/09/12 03:35:28;;;;;;;25.05;11.60;;;18.60;99.90;;;;;;4975628;28;20074;-52
2023/09/12 03:37:54;;;;;;;22.77;10.15;;;18.60;99.90;;;;;;4975257;28;20455;-55
2023/09/12 03:40:19;;;;;;;22.42;10.65;;;18.60;99.90;;;;;;4975591;28;20095;-54
2023/09/12 03:42:45;;;;;;;23.27;10.80;;;18.60;99.90;;;;;;4975658;28;20505;-53
2023/09/12 03:45:11;;;;;;;24.13;11.75;;;18.60;99.90;;;;;;4973774;28;20027;-52
2023/09/12 03:47:37;;;;;;;22.40;10.10;;;18.60;99.90;;;;;;4975144;28;20019;-51
2023/09/12 03:50:03;;;;;;;22.90;10.38;;;18.70;99.90;;;;;;4975580;28;20027;-54
2023/09/12 03:52:29;;;;;;;22.52;10.20;;;18.70;99.90;;;;;;4975563;28;20371;-53
2023/09/12 03:54:54;;;;;;;20.90;9.27;;;18.70;99.90;;;;;;4975089;28;20025;-53
2023/09/12 03:57:20;;;;;;;18.52;9.50;;;18.80;99.90;;;;;;4973967;28;20037;-56
2023/09/12 03:59:46;;;;;;;16.63;10.07;;;18.80;99.90;;;;;;4975220;28;20534;-53
2023/09/12 04:02:12;;;;;;;25.45;10.52;;;18.90;99.90;;;;;;4975108;28;20054;-53
2023/09/12 04:04:38;;;;;;;31.67;12.82;;;18.90;99.90;;;;;;4974949;28;20503;-54
2023/09/12 04:07:04;;;;;;;26.55;10.07;;;18.90;99.90;;;;;;4974966;28;20151;-52
2023/09/12 04:09:29;;;;;;;20.23;10.02;;;19.00;99.90;;;;;;4975100;28;20023;-53
2023/09/12 04:11:55;;;;;;;20.55;10.60;;;19.10;99.90;;;;;;4975167;28;20018;-54
2023/09/12 04:14:21;;;;;;;23.20;9.52;;;19.10;99.90;;;;;;4974706;28;20106;-51
2023/09/12 04:16:46;;;;;;;19.27;9.50;;;19.10;99.90;;;;;;4975060;28;20565;-52
2023/09/12 04:19:13;;;;;;;20.95;9.82;;;19.10;99.90;;;;;;4974912;28;20042;-54
2023/09/12 04:21:39;;;;;;;14.77;9.57;;;19.10;99.90;;;;;;4975097;28;20151;-50
2023/09/12 04:24:05;;;;;;;18.85;10.45;;;19.20;99.90;;;;;;4973110;28;20619;-50
2023/09/12 04:26:31;;;;;;;17.70;9.35;;;19.20;99.90;;;;;;4974475;28;20027;-50
2023/09/12 04:28:56;;;;;;;16.48;9.88;;;19.30;99.90;;;;;;4974556;28;20402;-50
2023/09/12 04:31:22;;;;;;;23.80;10.07;;;19.30;99.90;;;;;;4974595;28;20026;-54
2023/09/12 04:33:47;;;;;;;27.42;11.10;;;19.30;99.90;;;;;;4974498;28;20023;-51
2023/09/12 04:36:13;;;;;;;20.95;10.50;;;19.20;99.90;;;;;;4974254;28;20039;-51
2023/09/12 04:38:38;;;;;;;20.27;10.73;;;19.10;99.90;;;;;;4974546;28;20095;-53
2023/09/12 04:41:07;;;;;;;18.52;11.07;;;19.10;99.90;;;;;;4974477;28;20034;-54
2023/09/12 04:43:32;;;;;;;20.00;10.50;;;19.00;99.90;;;;;;4974185;28;20093;-52
2023/09/12 04:45:58;;;;;;;27.38;11.75;;;18.90;99.90;;;;;;4974162;28;20482;-53
2023/09/12 04:48:24;;;;;;;17.67;10.70;;;18.90;99.90;;;;;;4974720;28;20023;-52
2023/09/12 04:50:50;;;;;;;25.58;10.68;;;18.90;99.90;;;;;;4974532;28;20023;-51
2023/09/12 04:53:15;;;;;;;25.73;11.65;;;18.90;99.90;;;;;;4974346;28;20062;-56
2023/09/12 04:55:41;;;;;;;20.05;13.45;;;18.80;99.90;;;;;;4972869;28;20482;-55
2023/09/12 04:58:07;;;;;;;22.98;11.50;;;18.80;99.90;;;;;;4972734;28;20406;-54
2023/09/12 05:00:33;;;;;;;14.50;10.82;;;18.90;99.90;;;;;;4974168;28;20482;-54
2023/09/12 05:02:59;;;;;;;26.52;12.02;;;18.70;99.90;;;;;;4974151;28;20057;-53
2023/09/12 05:05:24;;;;;;;16.48;11.57;;;18.80;99.90;;;;;;4973568;28;20535;-53
2023/09/12 05:07:51;;;;;;;27.60;12.32;;;18.80;99.90;;;;;;4973856;28;20038;-52
2023/09/12 05:10:18;;;;;;;16.80;11.70;;;18.80;99.90;;;;;;4973919;28;20027;-54
2023/09/12 05:13:20;;;;;;;23.38;11.90;;;18.70;99.90;;;;;;4973973;28;20019;-55
2023/09/12 05:15:46;;;;;;;21.52;11.93;;;18.70;99.90;;;;;;4972339;28;20031;-55
2023/09/12 05:18:12;;;;;;;19.00;12.02;;;18.60;99.90;;;;;;4974000;28;20039;-51
2023/09/12 05:20:38;;;;;;;26.75;12.07;;;18.50;99.90;;;;;;4973880;28;20034;-55
2023/09/12 05:23:03;;;;;;;24.90;12.05;;;18.50;99.90;;;;;;4973764;28;20102;-57
2023/09/12 05:25:30;;;;;;;17.00;11.88;;;18.50;99.90;;;;;;4973967;28;20034;-56
2023/09/12 05:27:55;;;;;;;21.63;11.13;;;18.50;99.90;;;;;;4973650;28;20023;-55
2023/09/12 05:30:21;;;;;;;21.63;13.02;;;18.50;99.90;;;;;;4973693;28;20034;-54
2023/09/12 05:32:47;;;;;;;19.88;11.68;;;18.50;99.90;;;;;;4972512;28;20031;-55
2023/09/12 05:35:12;;;;;;;23.50;11.75;;;18.60;99.90;;;;;;4973190;28;20457;-56
2023/09/12 05:37:38;;;;;;;26.90;10.90;;;18.60;99.90;;;;;;4973417;28;20050;-54
2023/09/12 05:40:04;;;;;;;23.25;11.65;;;18.60;99.90;;;;;;4973539;28;20062;-53
2023/09/12 05:42:30;;;;;;;21.98;11.48;;;18.70;99.90;;;;;;4972497;28;20407;-56
2023/09/12 05:44:56;;;;;;;24.92;11.25;;;18.70;99.90;;;;;;4973002;28;20042;-53
2023/09/12 05:47:22;;;;;;;15.80;10.38;;;18.70;99.90;;;;;;4973282;28;20391;-52
2023/09/12 05:49:47;;;;;;;26.65;12.20;;;18.80;99.90;;;;;;4973237;28;20048;-52
2023/09/12 05:52:13;;;;;;;22.40;11.68;;;18.80;99.90;;;;;;4973544;28;20078;-50
2023/09/12 05:54:40;;;;;;;26.23;11.40;;;18.80;99.90;;;;;;4972305;28;20030;-53
2023/09/12 06:00:28;;;;;;;15.20;9.82;;;18.90;99.90;;;;;;4972398;28;20089;-51
2023/09/12 06:02:53;;;;;;;18.45;10.57;;;18.90;99.90;;;;;;4972948;28;20034;-54
2023/09/12 06:05:19;;;;;;;26.60;10.35;;;18.90;99.90;;;;;;4972680;28;20049;-52
2023/09/12 06:07:46;;;;;;;23.23;11.27;;;19.00;99.90;;;;;;4972775;28;20027;-56
2023/09/12 06:10:12;;;;;;;18.55;9.95;;;19.10;99.90;;;;;;4971830;28;20050;-54
2023/09/12 06:12:37;;;;;;;18.63;11.10;;;19.10;99.90;;;;;;4972930;28;20030;-51
2023/09/12 06:15:04;;;;;;;28.33;11.75;;;19.20;99.90;;;;;;4972464;28;20541;-52
2023/09/12 06:17:29;;;;;;;22.88;10.15;;;19.20;99.90;;;;;;4972699;28;20030;-57
2023/09/12 06:19:55;;;;;;;13.93;10.55;;;19.10;99.90;;;;;;4973100;28;20073;-54
2023/09/12 06:22:22;;;;;;;13.60;9.52;;;19.20;99.90;;;;;;4972869;28;20054;-53
2023/09/12 06:24:48;;;;;;;19.73;10.07;;;19.20;99.90;;;;;;4972160;28;20019;-53
2023/09/12 06:27:18;;;;;;;16.10;9.93;;;19.20;99.90;;;;;;4972638;28;20085;-52
2023/09/12 06:29:48;;;;;;;20.52;11.00;;;19.30;99.90;;;;;;4971399;28;20073;-56
2023/09/12 06:32:14;;;;;;;21.77;10.38;;;19.40;99.90;;;;;;4972882;28;20023;-49
2023/09/12 06:34:40;;;;;;;19.95;9.98;;;19.50;99.90;;;;;;4972394;28;20023;-55
2023/09/12 06:37:05;;;;;;;23.98;9.80;;;19.50;99.90;;;;;;4972450;28;20089;-50
2023/09/12 06:39:31;;;;;;;26.08;10.77;;;19.70;99.90;;;;;;4992988;23;20529;-50
2023/09/12 06:41:56;;;;;;;22.38;11.90;;;19.90;99.90;;;;;;4972780;28;20509;-52
2023/09/12 06:44:22;;;;;;;18.10;10.52;;;20.10;99.90;;;;;;4972422;28;20068;-51
2023/09/12 06:46:47;;;;;;;19.52;10.10;;;20.30;99.90;;;;;;4972576;28;20038;-48
2023/09/12 06:49:13;;;;;;;24.13;9.57;;;20.30;99.90;;;;;;4972604;28;20077;-50
2023/09/12 06:51:38;;;;;;;22.75;9.98;;;20.40;99.90;;;;;;4971447;28;20042;-52
2023/09/12 06:54:04;;;;;;;14.55;8.35;;;20.60;99.90;;;;;;4972332;28;20031;-50
2023/09/12 06:56:30;;;;;;;13.25;8.13;;;20.90;99.90;;;;;;4972599;28;20133;-51
2023/09/12 06:58:55;;;;;;;21.75;9.93;;;21.40;99.90;;;;;;4972440;28;20143;-49
2023/09/12 07:01:21;;;;;;;14.80;8.18;;;21.90;99.90;;;;;;4972389;28;20019;-54
2023/09/12 07:03:47;;;;;;;19.27;8.52;;;22.50;99.90;;;;;;4972359;28;20030;-55
2023/09/12 07:06:12;;;;;;;18.52;8.15;;;22.90;99.90;;;;;;4974271;28;20031;-49
2023/09/12 07:08:38;;;;;;;16.08;7.60;;;23.50;99.90;;;;;;4975087;28;20023;-65
2023/09/12 07:11:05;;;;;;;20.98;8.05;;;24.00;99.90;;;;;;4970386;28;20434;-50
2023/09/12 07:13:32;;;;;;;18.10;7.32;;;24.60;99.90;;;;;;4975021;28;20037;-46
2023/09/12 07:15:58;;;;;;;24.50;8.05;;;25.20;99.90;;;;;;4975722;28;20019;-44
2023/09/12 07:18:23;;;;;;;22.98;7.45;;;25.80;99.90;;;;;;4976007;28;20030;-49
2023/09/12 07:21:03;;;;;;;19.63;8.65;;;26.60;99.90;;;;;;4975713;28;20023;-44
2023/09/12 07:23:29;;;;;;;14.25;6.80;;;27.00;99.90;;;;;;4975743;28;20490;-46
2023/09/12 07:25:57;;;;;;;18.65;8.00;;;27.30;99.90;;;;;;4975563;28;20037;-44
2023/09/12 07:28:23;;;;;;;18.60;7.40;;;27.80;99.90;;;;;;4975783;28;20023;-51
2023/09/12 07:30:49;;;;;;;21.10;8.27;;;28.20;99.90;;;;;;4974534;28;20399;-47
2023/09/12 07:33:15;;;;;;;11.90;7.30;;;28.20;99.90;;;;;;4975523;28;20071;-46
2023/09/12 07:35:40;;;;;;;25.33;6.90;;;28.40;99.90;;;;;;4975234;28;20105;-48
2023/09/12 07:38:06;;;;;;;9.85;6.82;;;28.80;99.90;;;;;;4975645;28;20101;-45
2023/09/12 07:40:31;;;;;;;15.93;6.78;;;29.00;99.90;;;;;;4973909;28;20113;-46
2023/09/12 07:42:56;;;;;;;13.88;6.03;;;29.60;98.90;;;;;;4975321;28;20553;-49
2023/09/12 07:45:22;;;;;;;9.40;5.72;;;30.00;98.70;;;;;;4974945;28;20035;-48
2023/09/12 07:47:48;;;;;;;15.93;5.88;;;30.50;97.80;;;;;;4975116;28;20031;-51
2023/09/12 07:50:14;;;;;;;15.98;6.50;;;30.60;96.90;;;;;;4975280;28;20154;-50
2023/09/12 07:52:39;;;;;;;12.27;5.75;;;30.70;96.70;;;;;;4975438;28;20042;-50
2023/09/12 07:55:06;;;;;;;11.43;5.45;;;31.00;96.10;;;;;;4974735;28;20562;-49
2023/09/12 07:57:33;;;;;;;15.68;5.35;;;30.80;96.30;;;;;;4973744;28;20022;-51
2023/09/12 07:59:58;;;;;;;11.18;5.88;;;30.70;96.20;;;;;;4975656;28;20023;-48
2023/09/12 08:02:24;;;;;;;19.25;5.97;;;30.90;96.30;;;;;;4975799;28;20027;-50
2023/09/12 08:04:56;;;;;;;18.67;6.32;;;31.10;95.90;;;;;;4975463;28;20559;-47
2023/09/12 08:07:21;;;;;;;22.35;6.57;;;31.20;95.90;;;;;;4975603;28;20033;-48
2023/09/12 08:09:52;;;;;;;16.00;6.70;;;31.70;95.50;;;;;;4975106;28;20019;-47
2023/09/12 08:12:19;;;;;;;14.75;6.68;;;31.80;94.90;;;;;;4974807;28;20119;-49
2023/09/12 08:14:45;;;;;;;14.50;6.10;;;31.60;95.20;;;;;;4974603;28;20018;-49
2023/09/12 08:17:11;;;;;;;14.48;5.57;;;31.70;94.40;;;;;;4973052;28;20117;-49
2023/09/12 08:19:36;;;;;;;16.30;6.68;;;31.50;95.10;;;;;;4975078;28;20034;-50
2023/09/12 08:22:02;;;;;;;15.18;6.22;;;31.20;95.30;;;;;;4974622;28;20045;-49
2023/09/12 08:24:28;;;;;;;15.45;6.72;;;31.00;95.20;;;;;;4974642;28;20110;-47
2023/09/12 08:26:54;;;;;;;17.10;6.50;;;30.40;96.00;;;;;;4974682;28;20026;-45
2023/09/12 08:29:20;;;;;;;39.20;7.78;;;29.70;96.60;;;;;;4974616;28;20042;-45
2023/09/12 08:31:46;;;;;;;22.40;6.82;;;28.80;98.20;;;;;;4974724;28;20066;-46
2023/09/12 08:34:12;;;;;;;15.55;5.93;;;28.10;99.40;;;;;;4974462;28;20513;-48
2023/09/12 08:36:38;;;;;;;15.20;6.32;;;27.70;99.90;;;;;;4969962;28;20043;-47
2023/09/12 08:39:04;;;;;;;16.58;7.15;;;27.30;99.90;;;;;;4967716;28;20379;-50
2023/09/12 08:41:30;;;;;;;22.92;7.38;;;27.40;99.90;;;;;;4974266;28;20031;-50
2023/09/12 08:43:56;;;;;;;17.88;7.55;;;27.90;99.90;;;;;;4974266;28;20380;-47
2023/09/12 08:46:22;;;;;;;13.63;6.28;;;28.80;99.70;;;;;;4973811;28;20031;-47
2023/09/12 08:48:50;;;;;;;20.20;6.78;;;29.80;98.40;;;;;;4973534;28;20042;-46
2023/09/12 08:51:15;;;;;;;14.82;6.88;;;30.60;97.30;;;;;;4974565;28;20038;-47
2023/09/12 08:53:41;;;;;;;18.25;6.60;;;31.50;96.10;;;;;;4973896;28;20023;-51
2023/09/12 08:56:08;;;;;;;13.93;5.90;;;32.00;94.80;;;;;;4970222;28;20499;-46
2023/09/12 08:58:35;;;;;;;18.17;6.90;;;32.40;94.60;;;;;;4974382;28;20027;-43
2023/09/12 09:01:03;;;;;;;15.50;6.45;;;33.10;94.20;;;;;;4967894;28;20106;-46
2023/09/12 09:03:29;;;;;;;15.45;6.53;;;33.40;93.30;;;;;;4973479;28;20038;-55
2023/09/12 09:05:57;;;;;;;20.75;6.80;;;33.80;92.50;;;;;;4982167;28;20019;-51
2023/09/12 09:08:24;;;;;;;13.80;5.75;;;33.90;91.90;;;;;;4979888;28;20023;-51
2023/09/12 09:11:02;;;;;;;13.57;5.97;;;33.90;92.30;;;;;;4973873;28;20089;-57
2023/09/12 09:13:27;;;;;;;15.05;6.30;;;33.90;91.90;;;;;;4972981;28;20462;-50
2023/09/12 09:16:11;;;;;;;15.25;5.45;;;34.10;91.30;;;;;;4965007;28;20063;-49
2023/09/12 09:19:12;;;;;;;22.23;6.63;;;34.30;91.50;;;;;;4955115;28;20023;-51
2023/09/12 09:21:40;;;;;;;19.05;6.57;;;34.20;91.80;;;;;;4952768;29;20027;-65
2023/09/12 09:24:11;;;;;;;16.67;7.25;;;34.10;91.40;;;;;;4954134;28;20406;-54
2023/09/12 09:26:50;;;;;;;15.40;7.47;;;33.10;91.90;;;;;;4970106;28;20526;-54
2023/09/12 09:29:17;;;;;;;24.40;7.28;;;32.70;92.10;;;;;;4972754;28;20387;-48
2023/09/12 09:31:45;;;;;;;14.70;6.45;;;32.30;93.20;;;;;;4973914;28;20517;-48
2023/09/12 09:34:18;;;;;;;18.95;6.38;;;31.90;93.80;;;;;;4973298;28;20030;-53
2023/09/12 09:36:51;;;;;;;19.05;8.00;;;31.40;95.00;;;;;;4973579;28;20058;-49
2023/09/12 09:39:18;;;;;;;21.30;6.22;;;30.80;95.40;;;;;;4973563;28;20113;-52
2023/09/12 09:41:48;;;;;;;16.15;6.30;;;30.80;96.00;;;;;;4972973;28;20065;-50
2023/09/12 09:44:14;;;;;;;11.93;5.68;;;30.50;96.20;;;;;;4972826;28;20030;-50
2023/09/12 09:46:43;;;;;;;22.42;8.38;;;30.40;95.90;;;;;;4973370;28;20394;-51
2023/09/12 09:49:11;;;;;;;11.77;6.97;;;30.10;96.10;;;;;;4973300;28;20026;-51
2023/09/12 09:51:43;;;;;;;14.55;7.45;;;29.90;97.20;;;;;;4972970;28;20027;-52
2023/09/12 09:54:10;;;;;;;18.05;8.07;;;29.90;97.30;;;;;;4974028;28;20106;-53
2023/09/12 09:56:49;;;;;;;16.63;7.72;;;30.00;96.90;;;;;;4973097;28;20118;-52
2023/09/12 09:59:16;;;;;;;19.17;9.23;;;29.90;95.90;;;;;;4973177;28;20034;-51
2023/09/12 10:01:44;;;;;;;20.98;8.35;;;29.70;96.40;;;;;;4973033;28;20034;-51
2023/09/12 10:04:09;;;;;;;15.85;6.75;;;29.80;97.10;;;;;;4972840;28;20030;-51
2023/09/12 10:06:41;;;;;;;20.20;7.63;;;29.90;96.90;;;;;;4972844;28;20390;-53
2023/09/12 10:09:10;;;;;;;17.67;8.00;;;29.90;96.00;;;;;;4972738;28;20403;-50
2023/09/12 10:11:38;;;;;;;22.50;7.85;;;29.80;96.10;;;;;;4972747;28;20023;-56
2023/09/12 10:14:05;;;;;;;29.08;19.48;;;29.80;96.60;;;;;;4968577;28;20063;-54
2023/09/12 10:16:36;;;;;;;21.00;11.57;;;29.80;96.80;;;;;;4973030;28;20506;-54
2023/09/12 10:19:16;;;;;;;18.77;9.13;;;29.70;96.80;;;;;;4961802;28;20110;-54
2023/09/12 10:21:54;;;;;;;15.20;6.63;;;29.50;97.20;;;;;;4967266;28;20030;-52
2023/09/12 10:24:21;;;;;;;16.67;7.22;;;29.30;97.60;;;;;;4972278;28;20030;-52
2023/09/12 10:26:50;;;;;;;20.85;8.20;;;29.10;98.10;;;;;;4972563;28;20031;-50
2023/09/12 10:29:15;;;;;;;19.35;7.32;;;29.20;98.00;;;;;;4969083;28;20066;-50
2023/09/12 10:31:41;;;;;;;18.63;7.85;;;29.20;98.30;;;;;;4970732;28;20081;-54
2023/09/12 10:34:10;;;;;;;16.13;6.88;;;29.10;97.60;;;;;;4971886;28;20027;-51
2023/09/12 10:36:39;;;;;;;15.85;7.03;;;28.80;98.40;;;;;;4971777;28;20033;-49
2023/09/12 10:39:06;;;;;;;12.60;7.15;;;28.60;98.60;;;;;;4965570;28;20019;-56
2023/09/12 10:41:33;;;;;;;13.55;6.78;;;28.40;99.00;;;;;;4972032;28;20035;-51
2023/09/12 10:44:00;;;;;;;49.15;11.85;;;28.30;99.00;;;;;;4978595;28;20041;-49
2023/09/12 10:46:26;;;;;;;20.75;7.70;;;28.30;99.30;;;;;;4975471;28;20038;-53
2023/09/12 10:48:53;;;;;;;14.88;7.38;;;28.30;99.40;;;;;;4979027;28;20026;-50
2023/09/12 10:51:19;;;;;;;52.70;36.50;;;28.30;99.60;;;;;;4978937;28;20015;-51
2023/09/12 10:53:49;;;;;;;18.55;9.80;;;28.20;99.50;;;;;;4961355;28;20027;-48
2023/09/12 10:56:19;;;;;;;19.02;7.75;;;28.20;99.80;;;;;;4959580;28;20023;-55
2023/09/12 10:59:06;;;;;;;22.13;7.45;;;28.20;99.90;;;;;;4959645;28;20032;-49
2023/09/12 11:01:32;;;;;;;19.35;8.60;;;28.00;99.90;;;;;;4959696;28;20035;-53
2023/09/12 11:03:58;;;;;;;19.85;7.50;;;28.00;99.90;;;;;;4959863;28;20031;-47
2023/09/12 11:06:31;;;;;;;19.67;7.65;;;27.90;99.90;;;;;;4977491;28;20098;-52
2023/09/12 11:09:15;;;;;;;16.33;8.00;;;28.00;99.90;;;;;;4976510;28;20050;-54
2023/09/12 11:11:41;;;;;;;20.92;8.75;;;28.10;99.90;;;;;;4978203;28;20023;-58
2023/09/12 11:14:08;;;;;;;25.25;9.55;;;28.30;99.90;;;;;;4977589;28;20031;-48
2023/09/12 11:16:35;;;;;;;19.10;6.88;;;28.40;99.90;;;;;;4976586;28;20034;-48
2023/09/12 11:19:23;;;;;;;13.00;7.90;;;28.50;99.90;;;;;;4976307;28;20402;-49
2023/09/12 11:21:51;;;;;;;21.25;7.95;;;28.50;99.90;;;;;;4978545;28;20027;-46
2023/09/12 11:24:18;;;;;;;16.55;10.18;;;28.30;99.90;;;;;;4978197;28;20189;-48
2023/09/12 11:26:53;;;;;;;21.48;8.30;;;28.20;99.90;;;;;;4978465;28;20031;-47
2023/09/12 11:29:19;;;;;;;23.45;7.78;;;28.10;99.90;;;;;;4978598;28;20494;-48
2023/09/12 11:31:57;;;;;;;11.45;7.13;;;28.10;99.90;;;;;;4977559;28;20122;-49
2023/09/12 11:34:24;;;;;;;21.70;8.23;;;27.80;99.90;;;;;;4978434;28;20026;-50
2023/09/12 11:36:50;;;;;;;19.92;8.27;;;27.90;99.90;;;;;;4978538;28;20078;-46
2023/09/12 11:39:27;;;;;;;19.27;8.13;;;27.90;99.90;;;;;;4978424;28;20026;-47
2023/09/12 11:41:55;;;;;;;13.40;7.65;;;27.90;99.90;;;;;;4978561;28;20046;-52
2023/09/12 11:44:21;;;;;;;15.85;7.72;;;27.90;99.90;;;;;;4978319;28;20081;-46
2023/09/12 11:46:49;;;;;;;16.65;7.40;;;27.90;99.90;;;;;;4978751;28;20062;-46
2023/09/12 11:49:15;;;;;;;17.15;7.25;;;27.90;99.90;;;;;;4978693;28;20022;-48
2023/09/12 11:51:48;;;;;;;22.50;8.27;;;27.90;99.90;;;;;;4977832;28;20079;-47
2023/09/12 11:54:24;;;;;;;13.77;7.05;;;27.90;99.90;;;;;;4974981;28;20103;-49
2023/09/12 11:56:56;;;;;;;15.48;8.07;;;27.90;99.90;;;;;;4975523;28;20038;-48
2023/09/12 11:59:23;;;;;;;15.63;7.70;;;27.70;99.90;;;;;;4975337;28;20054;-48
2023/09/12 12:01:48;;;;;;;16.10;8.32;;;27.80;99.90;;;;;;4975463;28;20113;-48
2023/09/12 12:04:14;;;;;;;18.05;8.90;;;27.80;99.90;;;;;;4975137;28;20504;-48
2023/09/12 12:06:41;;;;;;;12.23;7.05;;;27.80;99.90;;;;;;4973867;28;20158;-50
2023/09/12 12:09:06;;;;;;;18.58;8.32;;;27.90;99.90;;;;;;4975166;28;20019;-49
2023/09/12 12:11:32;;;;;;;19.23;7.72;;;27.90;99.90;;;;;;4975186;28;20023;-51
2023/09/12 12:13:58;;;;;;;19.58;8.35;;;27.90;99.90;;;;;;4975057;28;20027;-49
2023/09/12 12:16:25;;;;;;;14.93;8.27;;;28.00;99.90;;;;;;4975089;28;20034;-49
2023/09/12 12:18:55;;;;;;;13.48;7.35;;;28.10;99.90;;;;;;4975033;28;20039;-47
2023/09/12 12:21:21;;;;;;;14.13;7.68;;;27.90;99.90;;;;;;4975113;28;20111;-47
2023/09/12 12:23:46;;;;;;;15.45;7.75;;;28.00;99.90;;;;;;4974565;28;20113;-46
2023/09/12 12:26:12;;;;;;;10.52;7.00;;;28.00;99.90;;;;;;4974750;28;20035;-49
2023/09/12 12:28:38;;;;;;;15.27;7.90;;;28.00;99.90;;;;;;4974930;28;20114;-48
2023/09/12 12:31:04;;;;;;;12.98;8.25;;;28.00;99.90;;;;;;4974841;28;20027;-51
2023/09/12 12:33:30;;;;;;;22.05;7.53;;;28.10;99.90;;;;;;4974701;28;20089;-47
2023/09/12 12:36:04;;;;;;;11.80;7.75;;;28.10;99.90;;;;;;4974455;28;20066;-50